Welcome to Northern Hawkes Bay. New Zealand.
PWS Header
      nz Flag



Hit Counter


W3C Valid W3C Valid logo


    Wairoa

Select any of the Stations below to visit their websites.










Historic Data from Weather Underground
Select the location of interest below. Wairoa is the default. Please have patience, this Data is slow to load in.
Northern Hawkes Bay Historical Data
Daily Summary for June 3, 2017 Units:  Metric    English   Both
« Previous Day
Next Day »
Daily Weekly Monthly Yearly Custom
  High: Low: Average:
Temperature: 17.0 °C 9.1 °C 12.6 °C
Dew Point: 12.2 °C 5.9 °C 9.5 °C
Humidity: 99% 60% 82%
Wind Speed: 20.9km/h 0.0km/h 7.8km/h
Wind Gust: 30.6km/h - -
Wind- - SSE
Pressure: 1013.4 hPa 1009.4 hPa -
Precipitation: 5.3 mm    
Historical Graphs
 
 
Tabular Data for June 3, 2017
Time Temperature Dew Point Pressure Wind Wind Speed Wind Gust Humidity Rainfall Rate (Hourly) solar
00:02 9.9 °C 9.8 °C 1013.4 hPa Calm   2.6 km/h 99% 0.0 mm 0 W/m2
00:07 9.7 °C 9.6 °C 1013.4 hPa Calm   2.6 km/h 99% 0.0 mm 0 W/m2
00:12 9.5 °C 9.3 °C 1013.4 hPa Calm   1.1 km/h 99% 0.0 mm 0 W/m2
00:17 9.5 °C 9.3 °C 1013.1 hPa WNW 1.1 km/h 2.6 km/h 99% 0.0 mm 0 W/m2
00:22 9.3 °C 9.2 °C 1013.4 hPa Calm   2.6 km/h 99% 0.0 mm 0 W/m2
00:27 9.2 °C 9.1 °C 1013.4 hPa Calm   3.5 km/h 99% 0.0 mm 0 W/m2
00:32 9.2 °C 9.1 °C 1013.1 hPa NNE 2.6 km/h 3.5 km/h 99% 0.0 mm 0 W/m2
00:37 9.1 °C 8.9 °C 1013.1 hPa North 3.5 km/h 6.1 km/h 99% 0.0 mm 0 W/m2
00:42 9.2 °C 9.1 °C 1013.1 hPa Calm   6.1 km/h 99% 0.0 mm 0 W/m2
00:47 9.4 °C 9.3 °C 1013.1 hPa NNW 1.1 km/h 6.1 km/h 99% 0.0 mm 0 W/m2
00:52 9.8 °C 9.7 °C 1012.8 hPa East 2.6 km/h 6.1 km/h 99% 0.0 mm 0 W/m2
00:57 10.6 °C 10.4 °C 1012.8 hPa SE 5.0 km/h 12.2 km/h 99% 0.0 mm 0 W/m2
01:02 11.0 °C 10.7 °C 1012.8 hPa SE 2.6 km/h 15.8 km/h 98% 0.0 mm 0 W/m2
01:07 11.0 °C 10.7 °C 1012.8 hPa SE 5.0 km/h 15.8 km/h 98% 0.0 mm 0 W/m2
01:08 11.1 °C 10.8 °C 1012.8 hPa ESE 3.5 km/h 15.8 km/h 98% 0.0 mm 0 W/m2
01:13 11.2 °C 10.9 °C 1012.8 hPa ESE 3.5 km/h 11.1 km/h 98% 0.0 mm 0 W/m2
01:18 11.4 °C 11.1 °C 1012.8 hPa ESE 6.1 km/h 9.7 km/h 98% 0.0 mm 0 W/m2
01:23 11.6 °C 11.3 °C 1012.8 hPa ESE 8.7 km/h 15.8 km/h 98% 0.0 mm 0 W/m2
01:28 11.8 °C 11.5 °C 1012.8 hPa ESE 12.2 km/h 17.2 km/h 98% 0.0 mm 0 W/m2
01:33 11.8 °C 11.5 °C 1012.8 hPa ESE 9.7 km/h 19.5 km/h 98% 0.0 mm 0 W/m2
01:38 12.1 °C 11.5 °C 1012.8 hPa ESE 3.5 km/h 19.5 km/h 96% 0.0 mm 0 W/m2
01:43 12.1 °C 11.0 °C 1012.8 hPa East 9.7 km/h 15.8 km/h 93% 0.0 mm 0 W/m2
01:48 12.1 °C 10.7 °C 1012.8 hPa East 5.0 km/h 15.8 km/h 91% 0.0 mm 0 W/m2
01:53 12.1 °C 10.5 °C 1012.8 hPa East 5.0 km/h 12.2 km/h 90% 0.0 mm 0 W/m2
01:54 12.1 °C 10.5 °C 1012.8 hPa East 6.1 km/h 12.2 km/h 90% 0.0 mm 0 W/m2
01:59 12.0 °C 10.4 °C 1012.8 hPa East 6.1 km/h 11.1 km/h 90% 0.0 mm 0 W/m2
02:04 12.0 °C 10.6 °C 1012.8 hPa East 9.7 km/h 14.8 km/h 91% 0.0 mm 0 W/m2
02:09 11.9 °C 10.7 °C 1012.8 hPa ESE 8.7 km/h 20.9 km/h 92% 0.3 mm 0 W/m2
02:14 11.8 °C 10.6 °C 1012.8 hPa ESE 8.7 km/h 20.9 km/h 92% 0.3 mm 0 W/m2
02:19 11.7 °C 10.6 °C 1012.8 hPa ESE 6.1 km/h 20.9 km/h 93% 0.3 mm 0 W/m2
02:24 11.7 °C 10.6 °C 1012.8 hPa SE 2.6 km/h 14.8 km/h 93% 0.3 mm 0 W/m2
02:29 11.7 °C 10.6 °C 1012.4 hPa SE 3.5 km/h 13.4 km/h 93% 0.3 mm 0 W/m2
02:34 11.6 °C 10.5 °C 1012.4 hPa SE 5.0 km/h 13.4 km/h 93% 0.3 mm 0 W/m2
02:39 11.6 °C 10.3 °C 1012.4 hPa SE 5.0 km/h 13.4 km/h 92% 0.3 mm 0 W/m2
02:44 11.6 °C 10.3 °C 1012.4 hPa SE 3.5 km/h 12.2 km/h 92% 0.3 mm 0 W/m2
02:49 11.6 °C 10.5 °C 1012.1 hPa ESE 1.1 km/h 7.2 km/h 93% 0.3 mm 0 W/m2
02:54 11.6 °C 10.5 °C 1012.1 hPa East 6.1 km/h 8.7 km/h 93% 0.3 mm 0 W/m2
02:59 11.7 °C 10.6 °C 1012.4 hPa ENE 8.7 km/h 11.1 km/h 93% 0.3 mm 0 W/m2
03:04 11.7 °C 10.6 °C 1012.1 hPa East 3.5 km/h 13.4 km/h 93% 0.3 mm 0 W/m2
03:09 11.7 °C 10.4 °C 1012.4 hPa ENE 3.5 km/h 13.4 km/h 92% 0.0 mm 0 W/m2
03:14 11.6 °C 10.3 °C 1012.1 hPa ENE 2.6 km/h 11.1 km/h 92% 0.0 mm 0 W/m2
03:19 11.5 °C 10.2 °C 1012.1 hPa ENE 7.2 km/h 8.7 km/h 92% 0.0 mm 0 W/m2
03:24 11.5 °C 10.4 °C 1012.1 hPa ENE 2.6 km/h 8.7 km/h 93% 0.0 mm 0 W/m2
03:29 11.4 °C 10.3 °C 1012.1 hPa Calm   8.7 km/h 93% 0.0 mm 0 W/m2
03:34 11.3 °C 10.2 °C 1012.1 hPa NNE 1.1 km/h 3.5 km/h 93% 0.0 mm 0 W/m2
03:39 11.1 °C 10.0 °C 1012.1 hPa NNW 1.1 km/h 2.6 km/h 93% 0.0 mm 0 W/m2
03:44 10.9 °C 10.0 °C 1012.1 hPa WNW 2.6 km/h 3.5 km/h 94% 0.0 mm 0 W/m2
03:49 10.9 °C 10.0 °C 1011.7 hPa WSW 1.1 km/h 5.0 km/h 94% 0.0 mm 0 W/m2
03:54 10.9 °C 10.0 °C 1011.7 hPa WNW 1.1 km/h 5.0 km/h 94% 0.0 mm 0 W/m2
03:59 10.9 °C 10.1 °C 1011.7 hPa North 1.1 km/h 3.5 km/h 95% 0.0 mm 0 W/m2
04:04 10.9 °C 10.1 °C 1011.7 hPa NNE 2.6 km/h 5.0 km/h 95% 0.0 mm 0 W/m2
04:09 11.0 °C 10.1 °C 1011.7 hPa NE 5.0 km/h 7.2 km/h 94% 0.0 mm 0 W/m2
04:14 11.1 °C 10.3 °C 1011.7 hPa ENE 8.7 km/h 14.8 km/h 95% 0.3 mm 0 W/m2
04:19 11.2 °C 10.4 °C 1011.7 hPa East 6.1 km/h 14.8 km/h 95% 0.3 mm 0 W/m2
04:24 11.3 °C 10.7 °C 1011.7 hPa East 2.6 km/h 14.8 km/h 96% 0.3 mm 0 W/m2
04:29 11.3 °C 10.7 °C 1011.4 hPa East 1.1 km/h 8.7 km/h 96% 0.3 mm 0 W/m2
04:34 11.3 °C 10.7 °C 1011.7 hPa Calm   6.1 km/h 96% 0.3 mm 0 W/m2
04:39 11.3 °C 10.7 °C 1011.4 hPa ENE 9.7 km/h 12.2 km/h 96% 0.3 mm 0 W/m2
04:44 11.4 °C 10.3 °C 1011.4 hPa SE 11.1 km/h 18.3 km/h 93% 0.3 mm 0 W/m2
04:49 11.8 °C 10.6 °C 1011.4 hPa SE 7.2 km/h 18.3 km/h 92% 0.3 mm 0 W/m2
04:54 11.8 °C 10.4 °C 1011.7 hPa ESE 9.7 km/h 19.5 km/h 91% 0.3 mm 0 W/m2
04:59 11.7 °C 10.1 °C 1011.4 hPa ESE 8.7 km/h 19.5 km/h 90% 0.3 mm 0 W/m2
05:04 11.7 °C 10.1 °C 1011.4 hPa SSE 6.1 km/h 14.8 km/h 90% 0.3 mm 0 W/m2
05:09 11.8 °C 10.2 °C 1011.4 hPa SSE 7.2 km/h 14.8 km/h 90% 0.3 mm 0 W/m2
05:14 11.7 °C 10.1 °C 1011.4 hPa SE 7.2 km/h 14.8 km/h 90% 0.0 mm 0 W/m2
05:19 11.7 °C 10.1 °C 1011.4 hPa ESE 3.5 km/h 13.4 km/h 90% 0.0 mm 0 W/m2
05:24 11.6 °C 10.0 °C 1011.4 hPa SE 2.6 km/h 13.4 km/h 90% 0.0 mm 0 W/m2
05:29 11.6 °C 10.2 °C 1011.4 hPa SE 1.1 km/h 6.1 km/h 91% 0.0 mm 0 W/m2
05:34 11.6 °C 10.3 °C 1011.4 hPa SE 1.1 km/h 6.1 km/h 92% 0.0 mm 0 W/m2
05:39 11.6 °C 10.3 °C 1011.1 hPa Calm   6.1 km/h 92% 0.0 mm 0 W/m2
05:44 11.5 °C 10.2 °C 1011.4 hPa SSE 2.6 km/h 6.1 km/h 92% 0.0 mm 0 W/m2
05:49 11.5 °C 10.2 °C 1011.1 hPa SSE 7.2 km/h 14.8 km/h 92% 0.0 mm 0 W/m2
05:54 11.6 °C 10.0 °C 1011.1 hPa SSE 3.5 km/h 14.8 km/h 90% 0.0 mm 0 W/m2
05:59 11.6 °C 9.7 °C 1011.1 hPa SSE 2.6 km/h 12.2 km/h 88% 0.0 mm 0 W/m2
06:04 11.8 °C 9.4 °C 1011.1 hPa South 6.1 km/h 11.1 km/h 85% 0.0 mm 0 W/m2
06:09 12.0 °C 9.4 °C 1011.1 hPa South 9.7 km/h 13.4 km/h 84% 0.0 mm 0 W/m2
06:14 12.0 °C 9.7 °C 1011.4 hPa South 7.2 km/h 14.8 km/h 86% 0.0 mm 0 W/m2
06:19 12.0 °C 9.7 °C 1011.1 hPa South 8.7 km/h 14.8 km/h 86% 0.0 mm 0 W/m2
06:24 12.0 °C 9.6 °C 1011.4 hPa SSW 6.1 km/h 17.2 km/h 85% 0.0 mm 0 W/m2
06:29 12.0 °C 9.9 °C 1011.4 hPa SSW 8.7 km/h 17.2 km/h 87% 0.0 mm 0 W/m2
06:34 11.9 °C 10.3 °C 1011.4 hPa South 8.7 km/h 17.2 km/h 90% 0.0 mm 0 W/m2
06:39 11.9 °C 10.3 °C 1011.1 hPa South 7.2 km/h 14.8 km/h 90% 0.0 mm 0 W/m2
06:44 11.9 °C 10.3 °C 1011.1 hPa South 6.1 km/h 13.4 km/h 90% 0.0 mm 0 W/m2
06:49 11.9 °C 10.3 °C 1011.1 hPa South 6.1 km/h 11.1 km/h 90% 0.0 mm 0 W/m2
06:54 11.8 °C 10.1 °C 1011.1 hPa SSW 6.1 km/h 11.1 km/h 89% 0.0 mm 0 W/m2
06:59 11.9 °C 10.2 °C 1011.4 hPa South 8.7 km/h 13.4 km/h 89% 0.0 mm 0 W/m2
07:04 12.3 °C 9.8 °C 1011.1 hPa SSE 7.2 km/h 18.3 km/h 85% 0.0 mm 0 W/m2
07:09 12.4 °C 9.8 °C 1011.1 hPa South 6.1 km/h 18.3 km/h 84% 0.0 mm 0 W/m2
07:14 12.5 °C 9.9 °C 1011.1 hPa South 8.7 km/h 14.8 km/h 84% 0.0 mm 0 W/m2
07:20 12.6 °C 10.2 °C 1011.1 hPa South 8.7 km/h 17.2 km/h 85% 0.0 mm 0 W/m2
07:25 12.6 °C 10.2 °C 1011.4 hPa South 9.7 km/h 17.2 km/h 85% 0.0 mm 1 W/m2
07:30 12.5 °C 10.1 °C 1011.1 hPa South 14.8 km/h 20.9 km/h 85% 0.0 mm 3 W/m2
07:35 12.6 °C 10.2 °C 1011.1 hPa South 13.4 km/h 24.5 km/h 85% 0.0 mm 4 W/m2
07:40 12.6 °C 10.2 °C 1011.1 hPa South 9.7 km/h 24.5 km/h 85% 0.0 mm 4 W/m2
07:45 12.7 °C 10.2 °C 1011.1 hPa South 7.2 km/h 19.5 km/h 85% 0.0 mm 5 W/m2
07:50 12.6 °C 10.3 °C 1011.1 hPa South 7.2 km/h 19.5 km/h 86% 0.0 mm 4 W/m2
07:55 12.4 °C 10.3 °C 1011.1 hPa South 12.2 km/h 15.8 km/h 87% 0.5 mm 8 W/m2
08:00 12.3 °C 10.4 °C 1010.7 hPa SSW 15.8 km/h 28.0 km/h 88% 0.5 mm 11 W/m2
08:05 12.6 °C 10.5 °C 1011.1 hPa SSW 18.3 km/h 28.0 km/h 87% 0.5 mm 13 W/m2
08:10 12.7 °C 10.2 °C 1011.1 hPa South 9.7 km/h 28.0 km/h 85% 0.5 mm 10 W/m2
08:15 12.6 °C 10.2 °C 1011.1 hPa South 8.7 km/h 21.9 km/h 85% 1.0 mm 13 W/m2
08:20 12.6 °C 10.5 °C 1011.4 hPa SSE 8.7 km/h 20.9 km/h 87% 1.0 mm 22 W/m2
08:25 12.4 °C 10.7 °C 1011.4 hPa SE 6.1 km/h 14.8 km/h 89% 1.0 mm 24 W/m2
08:30 12.2 °C 10.6 °C 1011.4 hPa ESE 9.7 km/h 15.8 km/h 90% 1.0 mm 35 W/m2
08:35 12.2 °C 10.8 °C 1011.4 hPa SSE 7.2 km/h 21.9 km/h 91% 1.0 mm 49 W/m2
08:40 12.1 °C 10.7 °C 1011.4 hPa SE 8.7 km/h 21.9 km/h 91% 1.0 mm 52 W/m2
08:45 11.8 °C 10.6 °C 1011.4 hPa SE 7.2 km/h 21.9 km/h 92% 1.0 mm 58 W/m2
08:50 11.6 °C 10.3 °C 1011.4 hPa SSE 7.2 km/h 20.9 km/h 92% 0.5 mm 96 W/m2
08:55 11.7 °C 10.4 °C 1011.4 hPa South 5.0 km/h 14.8 km/h 92% 0.3 mm 90 W/m2
09:01 11.9 °C 10.7 °C 1011.1 hPa South 8.7 km/h 13.4 km/h 92% 0.3 mm 89 W/m2
09:06 11.9 °C 10.7 °C 1011.4 hPa SSE 6.1 km/h 14.8 km/h 92% 0.3 mm 87 W/m2
09:11 11.8 °C 10.6 °C 1011.1 hPa SSE 6.1 km/h 14.8 km/h 92% 0.3 mm 67 W/m2
09:16 11.8 °C 10.6 °C 1011.1 hPa SSE 6.1 km/h 12.2 km/h 92% 0.0 mm 67 W/m2
09:21 11.8 °C 10.7 °C 1011.1 hPa South 6.1 km/h 9.7 km/h 93% 0.0 mm 46 W/m2
09:26 11.9 °C 10.8 °C 1011.4 hPa South 7.2 km/h 13.4 km/h 93% 0.0 mm 72 W/m2
09:31 12.0 °C 10.9 °C 1011.4 hPa South 7.2 km/h 13.4 km/h 93% 0.3 mm 109 W/m2
09:36 12.3 °C 11.2 °C 1011.4 hPa SSE 5.0 km/h 13.4 km/h 93% 0.5 mm 115 W/m2
09:41 12.4 °C 11.3 °C 1011.4 hPa SSE 8.7 km/h 13.4 km/h 93% 0.5 mm 145 W/m2
09:46 12.7 °C 11.6 °C 1011.1 hPa SE 7.2 km/h 14.8 km/h 93% 0.5 mm 134 W/m2
09:51 12.7 °C 11.4 °C 1011.1 hPa SE 3.5 km/h 14.8 km/h 92% 0.5 mm 106 W/m2
09:56 13.0 °C 11.4 °C 1011.1 hPa SSE 5.0 km/h 11.1 km/h 90% 0.5 mm 100 W/m2
10:01 13.6 °C 12.0 °C 1011.1 hPa SSE 2.6 km/h 9.7 km/h 90% 0.5 mm 133 W/m2
10:06 14.2 °C 12.2 °C 1011.4 hPa SSE 5.0 km/h 8.7 km/h 88% 0.5 mm 108 W/m2
10:11 14.4 °C 12.1 °C 1011.1 hPa SE 5.0 km/h 11.1 km/h 86% 0.5 mm 122 W/m2
10:16 14.6 °C 12.1 °C 1011.4 hPa SSE 3.5 km/h 11.1 km/h 85% 0.5 mm 114 W/m2
10:21 14.4 °C 11.7 °C 1011.4 hPa SSE 5.0 km/h 13.4 km/h 84% 0.5 mm 72 W/m2
10:26 13.9 °C 11.4 °C 1011.4 hPa SE 5.0 km/h 13.4 km/h 85% 0.5 mm 186 W/m2
10:31 14.6 °C 12.1 °C 1011.4 hPa SE 9.7 km/h 17.2 km/h 85% 0.5 mm 166 W/m2
10:36 14.4 °C 10.8 °C 1011.4 hPa ESE 8.7 km/h 17.2 km/h 79% 0.3 mm 181 W/m2
10:41 14.5 °C 10.3 °C 1011.7 hPa ESE 7.2 km/h 17.2 km/h 76% 0.3 mm 180 W/m2
10:46 14.7 °C 10.7 °C 1011.7 hPa ESE 8.7 km/h 17.2 km/h 77% 0.3 mm 130 W/m2
10:51 14.4 °C 10.4 °C 1011.4 hPa ESE 7.2 km/h 14.8 km/h 77% 0.3 mm 113 W/m2
10:56 14.1 °C 9.9 °C 1011.7 hPa ESE 8.7 km/h 17.2 km/h 76% 0.3 mm 124 W/m2
11:01 14.0 °C 10.1 °C 1011.4 hPa ESE 3.5 km/h 17.2 km/h 77% 0.3 mm 124 W/m2
11:06 14.4 °C 10.4 °C 1011.4 hPa ESE 5.0 km/h 15.8 km/h 77% 0.3 mm 116 W/m2
11:11 14.9 °C 10.7 °C 1011.4 hPa ESE 6.1 km/h 12.2 km/h 76% 0.3 mm 133 W/m2
11:16 15.2 °C 10.6 °C 1011.4 hPa ESE 6.1 km/h 13.4 km/h 74% 0.3 mm 209 W/m2
11:21 15.4 °C 10.6 °C 1011.4 hPa ESE 6.1 km/h 19.5 km/h 73% 0.3 mm 231 W/m2
11:26 15.5 °C 10.9 °C 1011.4 hPa ESE 7.2 km/h 19.5 km/h 74% 0.3 mm 244 W/m2
11:31 15.1 °C 10.5 °C 1011.1 hPa SE 5.0 km/h 17.2 km/h 74% 0.0 mm 191 W/m2
11:36 14.1 °C 10.5 °C 1011.1 hPa SSE 6.1 km/h 17.2 km/h 79% 0.0 mm 146 W/m2
11:41 14.0 °C 11.3 °C 1011.1 hPa South 6.1 km/h 15.8 km/h 84% 0.0 mm 109 W/m2
11:46 14.7 °C 12.1 °C 1010.7 hPa South 3.5 km/h 9.7 km/h 84% 0.0 mm 104 W/m2
11:51 15.3 °C 12.1 °C 1010.7 hPa South 6.1 km/h 8.7 km/h 81% 0.0 mm 125 W/m2
11:57 15.9 °C 11.5 °C 1010.7 hPa SSE 5.0 km/h 11.1 km/h 75% 0.0 mm 199 W/m2
12:02 16.5 °C 11.7 °C 1010.7 hPa SSE 6.1 km/h 11.1 km/h 73% 0.0 mm 245 W/m2
12:07 16.6 °C 11.7 °C 1010.7 hPa SSE 5.0 km/h 12.2 km/h 73% 0.0 mm 230 W/m2
12:12 17.0 °C 11.7 °C 1010.4 hPa SE 5.0 km/h 12.2 km/h 71% 0.0 mm 209 W/m2
12:17 16.7 °C 10.6 °C 1010.4 hPa SE 7.2 km/h 12.2 km/h 67% 0.0 mm 205 W/m2
12:22 16.3 °C 9.5 °C 1010.4 hPa SE 7.2 km/h 21.9 km/h 64% 0.0 mm 221 W/m2
12:27 16.5 °C 9.4 °C 1010.0 hPa SE 9.7 km/h 21.9 km/h 63% 0.0 mm 218 W/m2
12:32 16.0 °C 8.5 °C 1010.4 hPa ESE 9.7 km/h 27.0 km/h 61% 0.0 mm 197 W/m2
12:37 15.6 °C 8.8 °C 1010.0 hPa ESE 11.1 km/h 27.0 km/h 64% 0.0 mm 176 W/m2
12:42 15.4 °C 8.6 °C 1010.0 hPa ESE 11.1 km/h 18.3 km/h 64% 0.0 mm 185 W/m2
12:46 15.3 °C 9.2 °C 1010.0 hPa ESE 5.0 km/h 18.3 km/h 67% 0.0 mm 196 W/m2
12:51 15.4 °C 8.8 °C 1010.0 hPa ESE 8.7 km/h 20.9 km/h 65% 0.0 mm 184 W/m2
12:56 15.6 °C 8.8 °C 1010.0 hPa ESE 9.7 km/h 21.9 km/h 64% 0.0 mm 157 W/m2
13:01 15.7 °C 8.9 °C 1010.0 hPa SE 11.1 km/h 21.9 km/h 64% 0.0 mm 98 W/m2
13:06 15.5 °C 8.5 °C 1010.0 hPa SE 7.2 km/h 19.5 km/h 63% 0.0 mm 98 W/m2
13:12 15.6 °C 8.6 °C 1010.0 hPa SE 14.8 km/h 24.5 km/h 63% 0.0 mm 165 W/m2
13:17 15.4 °C 8.4 °C 1010.0 hPa SSE 7.2 km/h 24.5 km/h 63% 0.0 mm 136 W/m2
13:22 15.3 °C 8.8 °C 1010.0 hPa SSE 12.2 km/h 23.3 km/h 65% 0.0 mm 125 W/m2
13:27 15.2 °C 8.7 °C 1009.7 hPa SSE 14.8 km/h 21.9 km/h 65% 0.0 mm 101 W/m2
13:32 15.5 °C 8.7 °C 1009.7 hPa SSE 5.0 km/h 20.9 km/h 64% 0.0 mm 134 W/m2
13:37 15.6 °C 9.1 °C 1009.7 hPa SE 7.2 km/h 20.9 km/h 65% 0.0 mm 142 W/m2
13:42 15.3 °C 8.3 °C 1009.7 hPa ESE 8.7 km/h 29.4 km/h 63% 0.0 mm 126 W/m2
13:47 15.4 °C 8.6 °C 1009.4 hPa ESE 8.7 km/h 29.4 km/h 64% 0.0 mm 139 W/m2
13:52 15.9 °C 9.3 °C 1009.7 hPa SE 9.7 km/h 18.3 km/h 65% 0.0 mm 178 W/m2
13:57 15.9 °C 9.1 °C 1009.7 hPa SE 11.1 km/h 23.3 km/h 64% 0.0 mm 159 W/m2
14:02 15.4 °C 8.8 °C 1009.7 hPa SE 7.2 km/h 23.3 km/h 65% 0.0 mm 137 W/m2
14:07 15.0 °C 8.3 °C 1009.7 hPa ESE 12.2 km/h 20.9 km/h 64% 0.0 mm 122 W/m2
14:12 14.8 °C 8.5 °C 1009.7 hPa SE 8.7 km/h 20.9 km/h 66% 0.0 mm 123 W/m2
14:17 14.6 °C 8.1 °C 1009.4 hPa SE 7.2 km/h 20.9 km/h 65% 0.0 mm 110 W/m2
14:22 14.6 °C 8.1 °C 1009.4 hPa SE 12.2 km/h 20.9 km/h 65% 0.0 mm 102 W/m2
14:27 14.6 °C 8.3 °C 1009.7 hPa ESE 5.0 km/h 19.5 km/h 66% 0.0 mm 96 W/m2
14:32 14.6 °C 8.1 °C 1009.4 hPa SSE 12.2 km/h 19.5 km/h 65% 0.0 mm 59 W/m2
14:37 14.4 °C 7.9 °C 1009.4 hPa SSE 7.2 km/h 17.2 km/h 65% 0.0 mm 108 W/m2
14:42 14.6 °C 8.1 °C 1009.4 hPa SE 2.6 km/h 19.5 km/h 65% 0.0 mm 82 W/m2
14:47 15.0 °C 8.0 °C 1009.4 hPa ESE 6.1 km/h 19.5 km/h 63% 0.0 mm 225 W/m2
14:52 15.7 °C 8.7 °C 1009.4 hPa SE 9.7 km/h 19.5 km/h 63% 0.0 mm 160 W/m2
14:57 16.1 °C 8.8 °C 1009.4 hPa SSE 9.7 km/h 20.9 km/h 62% 0.0 mm 285 W/m2
15:02 16.2 °C 8.4 °C 1009.4 hPa SSE 14.8 km/h 20.9 km/h 60% 0.0 mm 114 W/m2
15:07 15.3 °C 8.3 °C 1009.4 hPa SSE 9.7 km/h 21.9 km/h 63% 0.0 mm 114 W/m2
15:12 15.1 °C 8.6 °C 1009.4 hPa South 9.7 km/h 21.9 km/h 65% 0.0 mm 118 W/m2
15:17 14.9 °C 8.6 °C 1009.4 hPa SSE 11.1 km/h 20.9 km/h 66% 0.0 mm 92 W/m2
15:22 14.7 °C 8.4 °C 1009.4 hPa SE 7.2 km/h 20.9 km/h 66% 0.0 mm 85 W/m2
15:27 14.4 °C 8.1 °C 1009.4 hPa SSE 12.2 km/h 20.9 km/h 66% 0.0 mm 74 W/m2
15:32 14.3 °C 8.3 °C 1009.4 hPa SSE 11.1 km/h 20.9 km/h 67% 0.0 mm 67 W/m2
15:37 14.0 °C 7.8 °C 1009.7 hPa SSE 11.1 km/h 19.5 km/h 66% 0.0 mm 62 W/m2
15:42 14.0 °C 8.0 °C 1009.4 hPa SSE 15.8 km/h 21.9 km/h 67% 0.0 mm 60 W/m2
15:47 14.0 °C 8.0 °C 1009.4 hPa South 9.7 km/h 21.9 km/h 67% 0.0 mm 48 W/m2
15:52 13.9 °C 8.1 °C 1009.4 hPa SSE 17.2 km/h 23.3 km/h 68% 0.0 mm 39 W/m2
15:57 13.8 °C 7.8 °C 1009.7 hPa SSE 11.1 km/h 23.3 km/h 67% 0.0 mm 37 W/m2
16:02 13.7 °C 7.9 °C 1009.4 hPa SSE 14.8 km/h 30.6 km/h 68% 0.0 mm 35 W/m2
16:07 13.7 °C 7.7 °C 1009.4 hPa SSE 8.7 km/h 30.6 km/h 67% 0.0 mm 30 W/m2
16:12 13.7 °C 7.9 °C 1009.4 hPa South 13.4 km/h 27.0 km/h 68% 0.0 mm 20 W/m2
16:17 13.6 °C 7.6 °C 1009.4 hPa South 17.2 km/h 24.5 km/h 67% 0.0 mm 18 W/m2
16:22 13.6 °C 7.4 °C 1009.4 hPa South 8.7 km/h 24.5 km/h 66% 0.0 mm 12 W/m2
16:27 13.6 °C 7.8 °C 1009.4 hPa SSE 9.7 km/h 21.9 km/h 68% 0.0 mm 7 W/m2
16:32 13.5 °C 7.3 °C 1009.7 hPa SSE 11.1 km/h 18.3 km/h 66% 0.0 mm 5 W/m2
16:37 13.5 °C 7.5 °C 1009.4 hPa SSE 8.7 km/h 19.5 km/h 67% 0.0 mm 4 W/m2
16:42 13.4 °C 7.6 °C 1009.4 hPa SSE 7.2 km/h 19.5 km/h 68% 0.0 mm 2 W/m2
16:47 13.4 °C 7.8 °C 1009.4 hPa South 9.7 km/h 19.5 km/h 69% 0.0 mm 2 W/m2
16:52 13.4 °C 7.8 °C 1009.4 hPa South 9.7 km/h 19.5 km/h 69% 0.0 mm 0 W/m2
16:57 13.4 °C 7.8 °C 1009.4 hPa South 12.2 km/h 18.3 km/h 69% 0.0 mm 0 W/m2
17:02 13.4 °C 7.6 °C 1009.4 hPa South 14.8 km/h 25.6 km/h 68% 0.0 mm 0 W/m2
17:07 13.4 °C 7.6 °C 1009.4 hPa SSE 8.7 km/h 25.6 km/h 68% 0.0 mm 0 W/m2
17:12 13.3 °C 7.1 °C 1009.4 hPa South 7.2 km/h 25.6 km/h 66% 0.0 mm 0 W/m2
17:17 13.2 °C 7.0 °C 1009.4 hPa SSE 6.1 km/h 19.5 km/h 66% 0.0 mm 0 W/m2
17:22 13.1 °C 6.9 °C 1009.4 hPa SSE 8.7 km/h 19.5 km/h 66% 0.0 mm 0 W/m2
17:27 13.1 °C 6.9 °C 1009.4 hPa South 9.7 km/h 19.5 km/h 66% 0.0 mm 0 W/m2
17:32 13.0 °C 6.6 °C 1009.4 hPa South 11.1 km/h 18.3 km/h 65% 0.0 mm 0 W/m2
17:37 13.0 °C 5.9 °C 1009.7 hPa South 12.2 km/h 18.3 km/h 62% 0.0 mm 0 W/m2
17:42 13.0 °C 6.1 °C 1009.7 hPa South 8.7 km/h 17.2 km/h 63% 0.0 mm 0 W/m2
17:47 13.0 °C 6.3 °C 1009.4 hPa South 6.1 km/h 17.2 km/h 64% 0.0 mm 0 W/m2
17:52 13.1 °C 6.4 °C 1009.7 hPa South 7.2 km/h 15.8 km/h 64% 0.0 mm 0 W/m2
17:57 13.1 °C 6.7 °C 1009.7 hPa South 11.1 km/h 18.3 km/h 65% 0.0 mm 0 W/m2
18:02 13.3 °C 7.1 °C 1009.7 hPa South 7.2 km/h 18.3 km/h 66% 0.0 mm 0 W/m2
18:07 13.3 °C 7.1 °C 1009.7 hPa South 7.2 km/h 18.3 km/h 66% 0.0 mm 0 W/m2
18:12 13.1 °C 7.1 °C 1009.7 hPa South 7.2 km/h 18.3 km/h 67% 0.0 mm 0 W/m2
18:17 13.0 °C 7.0 °C 1009.7 hPa South 7.2 km/h 13.4 km/h 67% 0.0 mm 0 W/m2
18:22 12.9 °C 7.3 °C 1009.7 hPa South 7.2 km/h 12.2 km/h 69% 0.0 mm 0 W/m2
18:27 12.9 °C 7.8 °C 1009.7 hPa South 5.0 km/h 12.2 km/h 71% 0.0 mm 0 W/m2
18:32 12.8 °C 7.9 °C 1009.7 hPa South 6.1 km/h 12.2 km/h 72% 0.0 mm 0 W/m2
18:37 12.9 °C 8.2 °C 1009.7 hPa South 6.1 km/h 11.1 km/h 73% 0.0 mm 0 W/m2
18:42 12.9 °C 8.4 °C 1009.7 hPa SE 5.0 km/h 11.1 km/h 74% 0.0 mm 0 W/m2
18:47 12.7 °C 8.4 °C 1009.7 hPa SE 5.0 km/h 8.7 km/h 75% 0.0 mm 0 W/m2
18:52 12.8 °C 8.5 °C 1009.7 hPa SSE 8.7 km/h 17.2 km/h 75% 0.0 mm 0 W/m2
18:57 12.7 °C 8.2 °C 1009.7 hPa SSE 6.1 km/h 17.2 km/h 74% 0.0 mm 0 W/m2
19:02 12.8 °C 8.1 °C 1009.7 hPa SSE 2.6 km/h 13.4 km/h 73% 0.0 mm 0 W/m2
19:07 12.8 °C 8.3 °C 1009.7 hPa SSE 5.0 km/h 9.7 km/h 74% 0.0 mm 0 W/m2
19:12 12.8 °C 8.1 °C 1009.7 hPa South 6.1 km/h 12.2 km/h 73% 0.0 mm 0 W/m2
19:17 12.9 °C 8.4 °C 1009.7 hPa South 7.2 km/h 13.4 km/h 74% 0.0 mm 0 W/m2
19:22 12.6 °C 8.3 °C 1009.7 hPa SSE 3.5 km/h 14.8 km/h 75% 0.0 mm 0 W/m2
19:27 12.2 °C 8.3 °C 1009.7 hPa SE 1.1 km/h 14.8 km/h 77% 0.0 mm 0 W/m2
19:32 12.2 °C 8.7 °C 1009.7 hPa SSE 13.4 km/h 19.5 km/h 79% 0.0 mm 0 W/m2
19:37 12.7 °C 8.6 °C 1009.7 hPa South 14.8 km/h 20.9 km/h 76% 0.0 mm 0 W/m2
19:42 12.9 °C 8.4 °C 1009.7 hPa South 11.1 km/h 20.9 km/h 74% 0.0 mm 0 W/m2
19:47 13.0 °C 8.7 °C 1009.7 hPa South 11.1 km/h 20.9 km/h 75% 0.0 mm 0 W/m2
19:52 13.0 °C 8.7 °C 1009.7 hPa South 11.1 km/h 18.3 km/h 75% 0.0 mm 0 W/m2
19:57 13.0 °C 9.1 °C 1009.7 hPa South 11.1 km/h 24.5 km/h 77% 0.0 mm 0 W/m2
20:02 12.9 °C 8.9 °C 1009.7 hPa SSW 20.9 km/h 28.0 km/h 77% 0.0 mm 0 W/m2
20:07 12.9 °C 9.2 °C 1009.7 hPa SSW 14.8 km/h 28.0 km/h 78% 0.0 mm 0 W/m2
20:12 12.7 °C 9.2 °C 1009.7 hPa SW 15.8 km/h 28.0 km/h 79% 0.0 mm 0 W/m2
20:17 12.3 °C 9.1 °C 1009.7 hPa SSW 12.2 km/h 25.6 km/h 81% 0.0 mm 0 W/m2
20:22 12.1 °C 9.1 °C 1009.7 hPa SSW 15.8 km/h 24.5 km/h 82% 0.0 mm 0 W/m2
20:27 12.3 °C 9.3 °C 1009.7 hPa SSW 11.1 km/h 25.6 km/h 82% 0.0 mm 0 W/m2
20:32 12.1 °C 9.3 °C 1010.0 hPa SSW 13.4 km/h 25.6 km/h 83% 0.0 mm 0 W/m2
20:37 12.0 °C 9.4 °C 1010.0 hPa SSW 15.8 km/h 24.5 km/h 84% 0.0 mm 0 W/m2
20:42 11.8 °C 9.4 °C 1009.7 hPa SSW 9.7 km/h 25.6 km/h 85% 0.0 mm 0 W/m2
20:47 11.4 °C 9.2 °C 1010.0 hPa SW 8.7 km/h 25.6 km/h 86% 0.5 mm 0 W/m2
20:52 11.3 °C 9.4 °C 1009.7 hPa SW 18.3 km/h 23.3 km/h 88% 0.5 mm 0 W/m2
20:57 11.5 °C 9.6 °C 1009.7 hPa SW 7.2 km/h 21.9 km/h 88% 0.5 mm 0 W/m2
21:02 11.6 °C 9.7 °C 1009.7 hPa SW 14.8 km/h 27.0 km/h 88% 0.5 mm 0 W/m2
21:07 11.6 °C 9.7 °C 1009.7 hPa SSW 13.4 km/h 27.0 km/h 88% 0.5 mm 0 W/m2
21:12 11.4 °C 9.3 °C 1009.7 hPa SSW 13.4 km/h 27.0 km/h 87% 0.5 mm 0 W/m2
21:17 11.2 °C 9.1 °C 1010.0 hPa SSW 15.8 km/h 25.6 km/h 87% 0.5 mm 0 W/m2
21:22 11.1 °C 9.0 °C 1010.0 hPa SSW 11.1 km/h 25.6 km/h 87% 0.5 mm 0 W/m2
21:27 11.2 °C 9.3 °C 1009.7 hPa SSW 9.7 km/h 25.6 km/h 88% 0.5 mm 0 W/m2
21:32 11.1 °C 9.3 °C 1009.7 hPa SSW 12.2 km/h 24.5 km/h 89% 0.5 mm 0 W/m2
21:37 11.0 °C 9.4 °C 1010.0 hPa SSW 13.4 km/h 24.5 km/h 90% 1.0 mm 0 W/m2
21:42 10.8 °C 9.4 °C 1009.7 hPa SSW 8.7 km/h 23.3 km/h 91% 1.3 mm 0 W/m2
21:47 10.8 °C 9.6 °C 1010.0 hPa SSW 17.2 km/h 27.0 km/h 92% 1.3 mm 0 W/m2
21:52 10.7 °C 9.4 °C 1009.7 hPa SSW 9.7 km/h 27.0 km/h 92% 1.3 mm 0 W/m2
21:57 10.5 °C 9.4 °C 1009.7 hPa SW 8.7 km/h 23.3 km/h 93% 1.5 mm 0 W/m2
22:02 10.5 °C 9.4 °C 1009.7 hPa SW 5.0 km/h 17.2 km/h 93% 1.5 mm 0 W/m2
22:07 10.5 °C 9.4 °C 1009.7 hPa WSW 9.7 km/h 14.8 km/h 93% 1.5 mm 0 W/m2
22:12 10.5 °C 9.6 °C 1009.7 hPa WSW 9.7 km/h 14.8 km/h 94% 1.5 mm 0 W/m2
22:16 10.4 °C 9.5 °C 1009.7 hPa SW 9.7 km/h 17.2 km/h 94% 2.0 mm 0 W/m2
22:22 10.7 °C 9.9 °C 1009.7 hPa SW 13.4 km/h 21.9 km/h 95% 2.3 mm 0 W/m2
22:27 10.9 °C 10.1 °C 1009.7 hPa SSW 12.2 km/h 21.9 km/h 95% 2.3 mm 0 W/m2
22:32 11.0 °C 9.9 °C 1009.4 hPa SW 11.1 km/h 23.3 km/h 93% 2.0 mm 0 W/m2
22:37 11.1 °C 10.0 °C 1009.4 hPa SSW 17.2 km/h 25.6 km/h 93% 2.0 mm 0 W/m2
22:41 10.9 °C 9.8 °C 1009.4 hPa SSW 12.2 km/h 25.6 km/h 93% 1.8 mm 0 W/m2
22:47 10.9 °C 9.7 °C 1009.4 hPa SSW 14.8 km/h 25.6 km/h 92% 1.3 mm 0 W/m2
22:52 10.8 °C 9.6 °C 1009.4 hPa SSW 11.1 km/h 21.9 km/h 92% 1.3 mm 0 W/m2
22:57 10.8 °C 9.4 °C 1009.4 hPa SSW 9.7 km/h 20.9 km/h 91% 1.0 mm 0 W/m2
23:01 10.9 °C 9.5 °C 1009.7 hPa SSW 9.7 km/h 20.9 km/h 91% 1.0 mm 0 W/m2
23:07 11.0 °C 9.3 °C 1009.7 hPa SSW 11.1 km/h 20.9 km/h 89% 1.0 mm 0 W/m2
23:12 11.0 °C 8.9 °C 1009.4 hPa SW 11.1 km/h 18.3 km/h 87% 1.0 mm 0 W/m2
23:17 11.1 °C 9.0 °C 1009.4 hPa SW 8.7 km/h 18.3 km/h 87% 0.3 mm 0 W/m2
23:22 11.1 °C 8.8 °C 1009.4 hPa SW 8.7 km/h 14.8 km/h 86% 0.0 mm 0 W/m2
23:27 11.2 °C 8.9 °C 1009.4 hPa SW 7.2 km/h 14.8 km/h 86% 0.0 mm 0 W/m2
23:32 11.2 °C 8.8 °C 1009.4 hPa SW 6.1 km/h 13.4 km/h 85% 0.0 mm 0 W/m2
23:37 11.2 °C 8.8 °C 1009.4 hPa SW 5.0 km/h 14.8 km/h 85% 0.0 mm 0 W/m2
23:42 11.2 °C 8.8 °C 1009.4 hPa WSW 5.0 km/h 14.8 km/h 85% 0.0 mm 0 W/m2
23:47 11.1 °C 8.7 °C 1009.4 hPa SW 5.0 km/h 9.7 km/h 85% 0.0 mm 0 W/m2
23:52 11.1 °C 8.7 °C 1009.4 hPa WSW 9.7 km/h 20.9 km/h 85% 0.0 mm 0 W/m2
23:57 11.0 °C 8.8 °C 1009.4 hPa WSW 5.0 km/h 20.9 km/h 86% 0.0 mm 0 W/m2
Northern Hawkes Bay. New Zealand Historic Data
Compliments of Weather Underground - 2.25 mb